Ben-my-chree — MXLG6 — position and weather

sailwx.info

Track history (hours):
 
Tides and Currents Weather Stations Pressure Air Temp Water Temp Dewpoint Dewpoint Depression Visibility Wind Speed Wind Dir Waves Ship Positions

Ben-my-chree

Operator: The Isle of Man Steam Packet Co Ltd

Last reported at 2019-Dec-12 04:31 UTC. Time now 2019-Dec-12 08:01 UTC.
Position N 53°59' W 003°41'.

Length 125 m; draft 5 m.

Type: Ship. MMSI: 234983000.

Date/timePositionNaut miles runAvg speedWind from/ knotsBaromVisibWave heightAir tempDewpointWater temp
2019-Dec-12 04:31N 53°59' W 003°41'2710.9
2019-Dec-12 01:59N 54°02' W 002°55'0 0.0
2019-Dec-12 01:29N 54°02' W 002°55'0 0.0
2019-Dec-12 00:29N 54°02' W 002°55'0 0.0
2019-Dec-11 23:59N 54°02' W 002°55'12 8.1
2019-Dec-11 22:30N 53°56' W 003°12'7 0.6
2019-Dec-11 11:01N 53°56' W 003°24'2 0.2
2019-Dec-11 03:30N 53°56' W 003°27'816.3
2019-Dec-11 03:00N 53°56' W 003°13'11 2.8
2019-Dec-10 23:01N 54°01' W 002°57'1615.9
2019-Dec-10 22:01N 53°56' W 003°22'4 0.2
2019-Dec-10 01:40N 53°56' W 003°29'16 4.4
2019-Dec-09 22:01N 53°58' W 003°02'1717.3
2019-Dec-09 21:00N 53°56' W 003°31'1118.0
2019-Dec-09 20:23N 54°00' W 003°49'12 0.4
2019-Dec-08 16:42N 53°55' W 003°31'22 5.5
2019-Dec-08 12:39N 54°02' W 002°55'12 7.1
2019-Dec-08 11:00N 53°55' W 003°11'1413.9
2019-Dec-08 10:00N 53°57' W 003°35'4 0.5
2019-Dec-08 03:29N 53°56' W 003°29'714.6
2019-Dec-08 02:59N 53°56' W 003°17'715.0
2019-Dec-08 02:30N 53°57' W 003°05'7 6.3
2019-Dec-08 01:19N 54°02' W 002°55'0 0.0
2019-Dec-07 23:55N 54°02' W 002°55'0 0.3
2019-Dec-07 23:30N 54°02' W 002°55'3014.7
2019-Dec-07 21:30N 53°56' W 003°44'12 1.9
2019-Dec-07 15:30N 53°56' W 003°25'1615.7
2019-Dec-07 14:30N 54°00' W 002°59'3 5.7
2019-Dec-07 13:58N 54°02' W 002°55'15 4.3
2019-Dec-07 10:30N 53°55' W 003°18'2016.8
2019-Dec-07 09:21N 54°00' W 003°50'22 3.4
2019-Dec-07 03:00N 53°56' W 003°14'13 6.3
2019-Dec-07 00:58N 54°02' W 002°55'0 0.0
2019-Dec-06 23:40N 54°02' W 002°55'1 4.0
2019-Dec-06 23:30N 54°02' W 002°56'5 0.6
2019-Dec-06 14:31N 53°58' W 003°02'6 3.1
2019-Dec-06 12:36N 54°02' W 002°55'0 0.0
2019-Dec-06 12:20N 54°02' W 002°55'2 5.5
2019-Dec-06 12:01N 54°01' W 002°57'1616.1
2019-Dec-06 11:01N 53°56' W 003°23'18 1.9
2019-Dec-06 01:44N 54°02' W 002°55'0 0.0
2019-Dec-06 01:11N 54°02' W 002°55'19 7.1
2019-Dec-05 22:30N 53°56' W 003°26'1 0.2
2019-Dec-05 15:29N 53°56' W 003°24'18 7.1
2019-Dec-05 12:58N 54°02' W 002°55'0 0.0
2019-Dec-05 02:00N 54°02' W 002°55'0 0.0
2019-Dec-05 00:59N 54°02' W 002°55'2 0.1
2019-Dec-04 12:01N 54°01' W 002°57'20 2.3
2019-Dec-04 03:28N 53°56' W 003°29'1516.0
2019-Dec-04 02:30N 53°58' W 003°04'713.2
2019-Dec-04 02:00N 54°02' W 002°55'0 0.0
2019-Dec-03 23:30N 54°02' W 002°55'2914.5
2019-Dec-03 21:30N 53°59' W 003°44'817.1
2019-Dec-03 21:00N 54°02' W 003°57'1816.8
2019-Dec-03 19:55N 54°09' W 004°26'44 8.9
2019-Dec-03 15:00N 53°56' W 003°15'14 9.1
2019-Dec-03 13:30N 54°02' W 002°55'10 5.2
2019-Dec-03 11:31N 53°56' W 003°09'11 1.4
2019-Dec-03 03:26N 53°56' W 003°28'18 4.1
2019-Dec-02 23:01N 54°00' W 002°58'917.5
2019-Dec-02 22:30N 53°55' W 003°11'1817.3
2019-Dec-02 21:27N 53°58' W 003°42'8 1.4
2019-Dec-02 15:36N 53°55' W 003°29'21 7.8
2019-Dec-02 12:57N 54°02' W 002°55'8 5.9
2019-Dec-02 11:30N 53°57' W 003°06'  
Track history (hours):
 
Tides and Currents Weather Stations Pressure Air Temp Water Temp Dewpoint Dewpoint Depression Visibility Wind Speed Wind Dir Waves Ship Positions

Ben-my-chree

Operator: The Isle of Man Steam Packet Co Ltd

Last reported at 2019-Dec-12 04:31 UTC. Time now 2019-Dec-12 08:01 UTC.
Position N 53°59' W 003°41'.

Length 125 m; draft 5 m.

Type: Ship. MMSI: 234983000.

Date/timePositionNaut miles runAvg speedWind from/ knotsBaromVisibWave heightAir tempDewpointWater temp
2019-Dec-12 04:31N 53°59' W 003°41'2710.9
2019-Dec-12 01:59N 54°02' W 002°55'0 0.0
2019-Dec-12 01:29N 54°02' W 002°55'0 0.0
2019-Dec-12 00:29N 54°02' W 002°55'0 0.0
2019-Dec-11 23:59N 54°02' W 002°55'12 8.1
2019-Dec-11 22:30N 53°56' W 003°12'7 0.6
2019-Dec-11 11:01N 53°56' W 003°24'2 0.2
2019-Dec-11 03:30N 53°56' W 003°27'816.3
2019-Dec-11 03:00N 53°56' W 003°13'11 2.8
2019-Dec-10 23:01N 54°01' W 002°57'1615.9
2019-Dec-10 22:01N 53°56' W 003°22'4 0.2
2019-Dec-10 01:40N 53°56' W 003°29'16 4.4
2019-Dec-09 22:01N 53°58' W 003°02'1717.3
2019-Dec-09 21:00N 53°56' W 003°31'1118.0
2019-Dec-09 20:23N 54°00' W 003°49'12 0.4
2019-Dec-08 16:42N 53°55' W 003°31'22 5.5
2019-Dec-08 12:39N 54°02' W 002°55'12 7.1
2019-Dec-08 11:00N 53°55' W 003°11'1413.9
2019-Dec-08 10:00N 53°57' W 003°35'4 0.5
2019-Dec-08 03:29N 53°56' W 003°29'714.6
2019-Dec-08 02:59N 53°56' W 003°17'715.0
2019-Dec-08 02:30N 53°57' W 003°05'7 6.3
2019-Dec-08 01:19N 54°02' W 002°55'0 0.0
2019-Dec-07 23:55N 54°02' W 002°55'0 0.3
2019-Dec-07 23:30N 54°02' W 002°55'3014.7
2019-Dec-07 21:30N 53°56' W 003°44'12 1.9
2019-Dec-07 15:30N 53°56' W 003°25'1615.7
2019-Dec-07 14:30N 54°00' W 002°59'3 5.7
2019-Dec-07 13:58N 54°02' W 002°55'15 4.3
2019-Dec-07 10:30N 53°55' W 003°18'2016.8
2019-Dec-07 09:21N 54°00' W 003°50'22 3.4
2019-Dec-07 03:00N 53°56' W 003°14'13 6.3
2019-Dec-07 00:58N 54°02' W 002°55'0 0.0
2019-Dec-06 23:40N 54°02' W 002°55'1 4.0
2019-Dec-06 23:30N 54°02' W 002°56'5 0.6
2019-Dec-06 14:31N 53°58' W 003°02'6 3.1
2019-Dec-06 12:36N 54°02' W 002°55'0 0.0
2019-Dec-06 12:20N 54°02' W 002°55'2 5.5
2019-Dec-06 12:01N 54°01' W 002°57'1616.1
2019-Dec-06 11:01N 53°56' W 003°23'18 1.9
2019-Dec-06 01:44N 54°02' W 002°55'0 0.0
2019-Dec-06 01:11N 54°02' W 002°55'19 7.1
2019-Dec-05 22:30N 53°56' W 003°26'1 0.2
2019-Dec-05 15:29N 53°56' W 003°24'18 7.1
2019-Dec-05 12:58N 54°02' W 002°55'0 0.0
2019-Dec-05 02:00N 54°02' W 002°55'0 0.0
2019-Dec-05 00:59N 54°02' W 002°55'2 0.1
2019-Dec-04 12:01N 54°01' W 002°57'20 2.3
2019-Dec-04 03:28N 53°56' W 003°29'1516.0
2019-Dec-04 02:30N 53°58' W 003°04'713.2
2019-Dec-04 02:00N 54°02' W 002°55'0 0.0
2019-Dec-03 23:30N 54°02' W 002°55'2914.5
2019-Dec-03 21:30N 53°59' W 003°44'817.1
2019-Dec-03 21:00N 54°02' W 003°57'1816.8
2019-Dec-03 19:55N 54°09' W 004°26'44 8.9
2019-Dec-03 15:00N 53°56' W 003°15'14 9.1
2019-Dec-03 13:30N 54°02' W 002°55'10 5.2
2019-Dec-03 11:31N 53°56' W 003°09'11 1.4
2019-Dec-03 03:26N 53°56' W 003°28'18 4.1
2019-Dec-02 23:01N 54°00' W 002°58'917.5
2019-Dec-02 22:30N 53°55' W 003°11'1817.3
2019-Dec-02 21:27N 53°58' W 003°42'8 1.4
2019-Dec-02 15:36N 53°55' W 003°29'21 7.8
2019-Dec-02 12:57N 54°02' W 002°55'8 5.9
2019-Dec-02 11:30N 53°57' W 003°06'  

Dump ship's entire track history